Time;durP1;ratioP1;P1;durP2;ratioP2;P2;SDS_P1;SDS_P2;PMS_P1;PMS_P2;Temp;Humidity;BMP_temperature;BMP_pressure;BME280_temperature;BME280_humidity;BME280_pressure;Samples;Min_cycle;Max_cycle;Signal;HPM_P1;HPM_P2
2021/04/23 00:01:38;;;;;;;13.57;7.53;;;;;;;;;;4816221;28;20230;-87
2021/04/23 00:04:03;;;;;;;21.60;8.47;;;2.80;1.00;;;;;;4833875;28;20253;-82
2021/04/23 00:06:28;;;;;;;14.93;7.20;;;2.80;1.00;;;;;;4817990;28;20195;-85
2021/04/23 00:08:53;;;;;;;12.33;6.67;;;2.90;99.90;;;;;;4818084;28;20203;-86
2021/04/23 00:11:23;;;;;;;11.00;5.63;;;3.00;1.00;;;;;;4818904;28;20206;-80
2021/04/23 00:13:45;;;;;;;10.13;5.40;;;;;;;;;;4819647;28;20195;-88
2021/04/23 00:16:09;;;;;;;15.17;6.07;;;3.10;1.00;;;;;;4815596;28;20207;-87
2021/04/23 00:18:32;;;;;;;11.83;5.50;;;3.10;1.00;;;;;;4819115;28;20590;-87
2021/04/23 00:20:54;;;;;;;14.20;5.90;;;;;;;;;;4820656;28;20192;-87
2021/04/23 00:23:18;;;;;;;11.27;5.47;;;3.30;1.00;;;;;;4834485;28;20285;-83
2021/04/23 00:25:40;;;;;;;9.17;5.20;;;3.40;1.00;;;;;;4819743;28;20203;-84
2021/04/23 00:28:08;;;;;;;15.43;6.47;;;3.30;99.90;;;;;;4816801;28;20195;-85
2021/04/23 00:30:33;;;;;;;11.03;5.27;;;3.50;1.00;;;;;;4818724;28;20199;-86
2021/04/23 00:32:55;;;;;;;10.83;5.60;;;3.30;1.00;;;;;;4820401;28;20559;-87
2021/04/23 00:35:17;;;;;;;10.67;5.30;;;3.20;99.90;;;;;;4820501;28;20731;-82
2021/04/23 00:37:46;;;;;;;15.73;6.37;;;;;;;;;;4801374;28;20251;-81
2021/04/23 00:40:09;;;;;;;16.10;5.73;;;3.00;1.00;;;;;;4834816;28;20230;-85
2021/04/23 00:42:31;;;;;;;14.10;5.90;;;2.80;27.20;;;;;;4818924;28;20247;-86
2021/04/23 00:44:54;;;;;;;11.27;5.77;;;2.80;1.00;;;;;;4818584;28;20188;-83
2021/04/23 00:47:17;;;;;;;11.87;5.50;;;;;;;;;;4817831;28;20726;-85
2021/04/23 00:49:39;;;;;;;11.83;5.40;;;;;;;;;;4815954;28;20191;-83
2021/04/23 00:52:04;;;;;;;13.00;5.90;;;2.60;1.00;;;;;;4816868;28;20203;-86
2021/04/23 00:54:28;;;;;;;11.97;5.57;;;2.70;1.00;;;;;;4835101;28;20194;-86
2021/04/23 00:56:50;;;;;;;22.47;7.90;;;;;;;;;;4818652;28;20246;-85
2021/04/23 00:59:13;;;;;;;14.50;6.73;;;2.60;1.00;;;;;;4817117;28;20223;-83
2021/04/23 01:01:38;;;;;;;9.90;5.87;;;2.60;1.00;;;;;;4814952;28;20223;-83
2021/04/23 01:04:01;;;;;;;13.70;6.77;;;2.60;99.90;;;;;;4848531;28;20228;-89
2021/04/23 01:06:26;;;;;;;10.70;5.50;;;2.20;1.00;;;;;;4837924;28;20199;-88
2021/04/23 01:08:50;;;;;;;12.23;6.03;;;2.40;99.90;;;;;;4804911;28;20195;-87
2021/04/23 01:11:12;;;;;;;13.97;6.37;;;;;;;;;;4821531;28;20315;-83
2021/04/23 01:13:35;;;;;;;10.50;6.43;;;;;;;;;;4809097;28;20196;-84
2021/04/23 01:15:57;;;;;;;12.47;6.77;;;2.30;1.00;;;;;;4803101;28;20195;-84
2021/04/23 01:18:20;;;;;;;12.00;7.20;;;2.30;99.90;;;;;;4819525;28;20238;-85
2021/04/23 01:20:42;;;;;;;12.03;6.57;;;2.30;1.00;;;;;;4832037;28;20684;-85
2021/04/23 01:23:05;;;;;;;14.70;6.67;;;2.20;99.90;;;;;;4821277;28;20200;-87
2021/04/23 01:25:28;;;;;;;11.20;6.53;;;2.30;99.90;;;;;;4823215;28;20191;-86
2021/04/23 01:27:51;;;;;;;13.97;7.00;;;2.10;1.00;;;;;;4819273;28;20192;-82
2021/04/23 01:30:16;;;;;;;15.50;7.00;;;2.20;1.00;;;;;;4820247;28;20631;-86
2021/04/23 01:32:40;;;;;;;8.93;5.93;;;2.10;99.90;;;;;;4773677;28;20219;-89
2021/04/23 01:35:04;;;;;;;12.67;6.43;;;2.10;1.00;;;;;;4818253;28;20200;-87
2021/04/23 01:37:26;;;;;;;9.00;5.43;;;1.90;99.90;;;;;;4802967;28;20320;-86
2021/04/23 01:39:51;;;;;;;12.87;6.53;;;1.80;99.90;;;;;;4818426;28;20235;-85
2021/04/23 01:42:14;;;;;;;13.77;6.60;;;1.80;1.00;;;;;;4804633;28;20196;-80
2021/04/23 01:44:36;;;;;;;10.13;5.47;;;1.80;99.90;;;;;;4822630;28;20199;-76
2021/04/23 01:46:59;;;;;;;17.47;7.93;;;1.80;99.90;;;;;;4804528;28;20250;-87
2021/04/23 01:49:23;;;;;;;8.03;5.33;;;2.20;99.90;;;;;;4822744;28;20192;-87
2021/04/23 01:51:49;;;;;;;9.00;4.80;;;1.60;99.90;;;;;;4833185;28;20792;-88
2021/04/23 01:54:11;;;;;;;8.47;4.60;;;1.70;78.50;;;;;;4820592;28;20238;-84
2021/04/23 01:56:34;;;;;;;7.57;5.10;;;1.70;99.90;;;;;;4822244;28;20188;-84
2021/04/23 01:58:56;;;;;;;9.67;5.30;;;0.50;99.90;;;;;;4821584;28;20215;-82
2021/04/23 02:01:19;;;;;;;8.70;5.37;;;1.60;1.00;;;;;;4818183;28;20247;-88
2021/04/23 02:03:42;;;;;;;9.27;5.33;;;1.60;1.00;;;;;;4821097;28;20720;-81
2021/04/23 02:06:05;;;;;;;11.90;5.63;;;1.50;1.00;;;;;;4801045;28;20258;-86
2021/04/23 02:08:28;;;;;;;9.90;5.13;;;1.60;1.00;;;;;;4819907;28;20199;-85
2021/04/23 02:10:54;;;;;;;12.07;5.77;;;1.60;1.00;;;;;;4837732;28;20191;-88
2021/04/23 02:13:22;;;;;;;9.63;5.20;;;1.60;1.00;;;;;;4821643;28;20536;-84
2021/04/23 02:15:44;;;;;;;13.03;5.30;;;1.50;1.00;;;;;;4820741;28;20215;-81
2021/04/23 02:18:07;;;;;;;9.83;5.67;;;2.00;1.00;;;;;;4819293;28;20253;-89
2021/04/23 02:20:31;;;;;;;8.70;5.07;;;1.50;1.00;;;;;;4822175;28;20207;-90
2021/04/23 02:22:54;;;;;;;7.97;5.00;;;1.30;1.00;;;;;;4820725;28;20203;-86
2021/04/23 02:25:19;;;;;;;7.87;4.77;;;1.30;1.00;;;;;;4821509;28;20211;-76
2021/04/23 02:27:42;;;;;;;12.67;5.43;;;1.30;1.00;;;;;;4818964;28;20203;-75
2021/04/23 02:30:08;;;;;;;13.03;5.77;;;1.40;1.00;;;;;;4820937;28;20203;-89
2021/04/23 02:32:31;;;;;;;9.77;5.30;;;;;;;;;;4837564;28;20207;-87
2021/04/23 02:34:53;;;;;;;9.77;5.07;;;1.30;1.00;;;;;;4818892;28;20203;-89
2021/04/23 02:37:15;;;;;;;12.27;5.87;;;1.30;1.00;;;;;;4819361;28;20330;-90
2021/04/23 02:39:37;;;;;;;7.70;4.90;;;1.50;1.00;;;;;;4822133;28;20223;-88
2021/04/23 02:41:59;;;;;;;14.70;7.27;;;1.50;1.00;;;;;;4852828;28;20655;-86
2021/04/23 02:44:22;;;;;;;10.23;5.83;;;1.50;1.00;;;;;;4819838;28;20266;-85
2021/04/23 02:46:46;;;;;;;13.87;7.40;;;1.40;1.00;;;;;;4821397;28;20188;-83
2021/04/23 02:49:08;;;;;;;11.50;6.13;;;1.00;1.00;;;;;;4803373;28;20192;-89
2021/04/23 02:51:34;;;;;;;8.20;5.50;;;1.30;1.00;;;;;;4819802;28;20207;-89
2021/04/23 02:53:57;;;;;;;12.27;6.23;;;1.30;1.00;;;;;;4821256;28;20611;-77
2021/04/23 02:56:20;;;;;;;10.23;5.50;;;1.10;1.00;;;;;;4821501;28;20191;-82
2021/04/23 02:58:43;;;;;;;13.33;5.90;;;1.40;1.00;;;;;;4816150;28;20207;-82
2021/04/23 03:01:08;;;;;;;16.87;6.23;;;1.40;1.00;;;;;;4808205;28;20196;-85
2021/04/23 03:03:32;;;;;;;10.30;5.30;;;1.10;1.00;;;;;;4821488;28;20188;-83
2021/04/23 03:05:54;;;;;;;12.30;6.00;;;1.00;1.00;;;;;;4820527;28;20644;-87
2021/04/23 03:08:19;;;;;;;11.03;5.50;;;1.10;6.00;;;;;;4819942;28;20589;-80
2021/04/23 03:10:42;;;;;;;7.80;5.07;;;1.00;3.60;;;;;;4846483;28;20198;-86
2021/04/23 03:13:06;;;;;;;15.13;6.90;;;0.90;1.00;;;;;;4817966;28;20246;-82
2021/04/23 03:15:29;;;;;;;13.40;6.70;;;;;;;;;;4801119;28;20184;-85
2021/04/23 03:17:51;;;;;;;11.57;6.63;;;0.90;44.30;;;;;;4817653;28;20246;-88
2021/04/23 03:20:19;;;;;;;14.43;7.90;;;1.00;38.30;;;;;;4819599;28;20768;-87
2021/04/23 03:22:41;;;;;;;10.87;7.63;;;1.10;74.90;;;;;;4820798;28;20274;-87
2021/04/23 03:25:04;;;;;;;12.83;6.93;;;1.20;73.30;;;;;;4816191;28;20185;-86
2021/04/23 03:27:27;;;;;;;8.93;5.57;;;;;;;;;;4800704;28;20630;-83
2021/04/23 03:29:49;;;;;;;10.87;6.37;;;0.80;67.90;;;;;;4819208;28;20356;-88
2021/04/23 03:32:11;;;;;;;13.37;7.10;;;0.70;47.70;;;;;;4820140;28;20195;-85
2021/04/23 03:34:34;;;;;;;12.50;7.47;;;0.90;72.90;;;;;;4803041;28;20669;-82
2021/04/23 03:36:57;;;;;;;21.70;9.73;;;0.90;57.90;;;;;;4805012;28;20195;-86
2021/04/23 03:39:19;;;;;;;11.43;7.20;;;1.00;94.20;;;;;;4820426;28;20937;-84
2021/04/23 03:41:42;;;;;;;13.57;8.30;;;1.00;74.30;;;;;;4819050;28;20274;-80
2021/04/23 03:44:04;;;;;;;17.50;8.93;;;1.50;86.10;;;;;;4819774;28;20207;-88
2021/04/23 03:46:28;;;;;;;11.33;7.53;;;1.00;81.90;;;;;;4819863;28;20219;-81
2021/04/23 03:48:50;;;;;;;14.17;7.90;;;1.10;99.90;;;;;;4819221;28;20673;-87
2021/04/23 03:51:14;;;;;;;16.07;7.90;;;0.90;87.50;;;;;;4786896;28;20189;-88
2021/04/23 03:53:37;;;;;;;12.47;7.53;;;1.00;99.90;;;;;;4834531;28;20198;-84
2021/04/23 03:56:00;;;;;;;16.03;7.90;;;;;;;;;;4820045;28;20598;-87
2021/04/23 03:58:23;;;;;;;15.00;8.30;;;1.10;94.20;;;;;;4819018;28;20617;-83
2021/04/23 04:00:48;;;;;;;36.10;13.53;;;1.10;96.20;;;;;;4800247;28;20798;-81
2021/04/23 04:03:11;;;;;;;19.37;9.47;;;1.20;98.40;;;;;;4818972;28;20605;-81
2021/04/23 04:05:34;;;;;;;13.83;6.67;;;;;;;;;;4820492;28;20233;-88
2021/04/23 04:07:56;;;;;;;13.50;7.03;;;1.40;99.90;;;;;;4817506;28;20716;-83
2021/04/23 04:10:20;;;;;;;11.90;6.53;;;1.20;96.90;;;;;;4818600;28;20195;-76
2021/04/23 04:13:02;;;;;;;13.77;7.80;;;;;;;;;;4819991;28;20283;-84
2021/04/23 04:15:45;;;;;;;12.97;8.40;;;;;;;;;;4819575;28;20183;-85
2021/04/23 04:18:27;;;;;;;14.37;8.87;;;;;;;;;;4817272;28;20563;-84
2021/04/23 04:21:09;;;;;;;15.73;9.40;;;;;;;;;;4819465;28;20686;-83
2021/04/23 04:23:51;;;;;;;19.17;9.00;;;1.90;99.90;;;;;;4819948;28;20537;-85
2021/04/23 04:26:34;;;;;;;12.73;7.30;;;2.10;99.90;;;;;;4819097;28;20183;-84
2021/04/23 04:29:18;;;;;;;20.40;7.70;;;;;;;;;;4819940;28;20191;-85
2021/04/23 04:32:00;;;;;;;13.27;6.53;;;2.50;99.90;;;;;;4818597;28;20199;-85
2021/04/23 04:34:42;;;;;;;10.67;6.07;;;2.40;99.90;;;;;;4817576;28;20537;-81
2021/04/23 04:37:24;;;;;;;13.17;7.17;;;2.30;99.90;;;;;;4807087;28;20197;-82
2021/04/23 04:40:09;;;;;;;12.40;6.20;;;1.90;98.20;;;;;;4818658;28;20322;-85
2021/04/23 04:42:54;;;;;;;11.17;6.83;;;2.40;93.00;;;;;;4819181;28;20183;-80
2021/04/23 04:45:37;;;;;;;12.77;6.53;;;2.50;89.00;;;;;;4819846;28;20192;-84
2021/04/23 04:48:20;;;;;;;12.37;6.83;;;2.20;70.20;;;;;;4829225;28;20199;-81
2021/04/23 04:50:44;;;;;;;11.43;6.23;;;2.40;48.20;;;;;;4815823;28;20198;-81
2021/04/23 04:53:08;;;;;;;17.67;7.47;;;2.50;49.30;;;;;;4800416;28;20507;-88
2021/04/23 04:55:33;;;;;;;15.53;6.47;;;2.70;80.40;;;;;;4806886;28;20195;-83
2021/04/23 04:57:56;;;;;;;15.30;7.03;;;2.60;47.80;;;;;;4817641;28;20187;-79
2021/04/23 05:00:19;;;;;;;10.63;6.00;;;2.70;45.60;;;;;;4819512;28;20215;-83
2021/04/23 05:02:41;;;;;;;18.03;7.00;;;;;;;;;;4830835;28;20261;-87
2021/04/23 05:05:05;;;;;;;16.90;7.60;;;2.50;56.60;;;;;;4819395;28;20246;-83
2021/04/23 05:07:27;;;;;;;12.20;6.60;;;4.00;81.40;;;;;;4818867;28;20199;-86
2021/04/23 05:09:49;;;;;;;12.10;7.00;;;3.40;86.10;;;;;;4825450;28;20241;-87
2021/04/23 05:12:11;;;;;;;13.60;7.27;;;3.90;88.50;;;;;;4844879;28;20195;-87
2021/04/23 05:14:34;;;;;;;12.07;6.33;;;3.90;51.40;;;;;;4815847;28;20195;-86
2021/04/23 05:16:56;;;;;;;19.87;8.20;;;4.20;68.20;;;;;;4814966;28;20199;-88
2021/04/23 05:19:19;;;;;;;10.10;6.33;;;;;;;;;;4818667;28;20257;-81
2021/04/23 05:21:41;;;;;;;8.13;5.23;;;4.90;24.90;;;;;;4819496;28;20658;-86
2021/04/23 05:24:03;;;;;;;13.20;6.03;;;5.00;1.00;;;;;;4818740;28;20254;-83
2021/04/23 05:26:25;;;;;;;11.57;5.33;;;6.10;1.00;;;;;;4801682;28;20243;-84
2021/04/23 05:28:48;;;;;;;8.97;4.93;;;5.80;1.00;;;;;;4832216;28;20743;-83
2021/04/23 05:31:10;;;;;;;15.30;5.57;;;5.50;1.00;;;;;;4799382;28;20216;-78
2021/04/23 05:33:33;;;;;;;8.03;4.07;;;;;;;;;;4817622;28;20199;-83
2021/04/23 05:35:55;;;;;;;11.57;4.80;;;;;;;;;;4816571;28;20196;-85
2021/04/23 05:38:18;;;;;;;6.87;3.77;;;;;;;;;;4801681;28;20218;-81
2021/04/23 05:40:43;;;;;;;11.23;4.07;;;6.40;1.00;;;;;;4819152;28;20289;-88
2021/04/23 05:43:06;;;;;;;10.23;4.53;;;6.50;1.00;;;;;;4850453;28;20586;-88
2021/04/23 05:45:28;;;;;;;7.13;3.70;;;6.50;1.00;;;;;;4845602;28;20811;-90
2021/04/23 05:47:52;;;;;;;12.80;5.17;;;6.70;59.20;;;;;;4816365;28;20246;-81
2021/04/23 05:50:16;;;;;;;7.70;3.47;;;6.70;1.00;;;;;;4816939;28;20191;-89
2021/04/23 05:52:39;;;;;;;6.33;2.97;;;;;;;;;;4821304;28;20901;-83
2021/04/23 05:55:01;;;;;;;8.73;3.37;;;6.80;1.00;;;;;;4820829;28;20207;-80
2021/04/23 05:57:23;;;;;;;6.83;3.43;;;6.00;1.00;;;;;;4819666;28;20729;-77
2021/04/23 05:59:46;;;;;;;8.70;3.97;;;;;;;;;;4819751;28;20223;-76
2021/04/23 06:02:08;;;;;;;13.47;4.60;;;;;;;;;;4818877;28;20223;-74
2021/04/23 06:04:32;;;;;;;8.30;3.53;;;7.30;74.20;;;;;;4821757;28;20183;-84
2021/04/23 06:06:54;;;;;;;17.07;5.37;;;6.90;1.00;;;;;;4835357;28;20257;-79
2021/04/23 06:09:16;;;;;;;6.90;3.63;;;7.30;1.00;;;;;;4819709;28;20238;-85
2021/04/23 06:11:40;;;;;;;6.57;3.17;;;;;;;;;;4819762;28;20199;-75
2021/04/23 06:14:02;;;;;;;9.17;3.73;;;7.50;99.90;;;;;;4819289;28;20669;-80
2021/04/23 06:16:24;;;;;;;5.63;3.20;;;;;;;;;;4821086;28;20553;-75
2021/04/23 06:18:46;;;;;;;7.40;3.70;;;7.00;99.90;;;;;;4818834;28;20199;-77
2021/04/23 06:21:10;;;;;;;9.27;3.90;;;7.50;1.00;;;;;;4820124;28;20281;-86
2021/04/23 06:23:32;;;;;;;10.03;4.10;;;;;;;;;;4821207;28;20222;-84
2021/04/23 06:25:54;;;;;;;10.10;4.07;;;7.80;1.00;;;;;;4819120;28;20731;-76
2021/04/23 06:28:16;;;;;;;9.03;3.73;;;8.00;1.00;;;;;;4818731;28;20202;-73
2021/04/23 06:30:39;;;;;;;4.77;2.63;;;9.20;1.00;;;;;;4819810;28;20199;-82
2021/04/23 06:33:11;;;;;;;9.07;3.17;;;8.90;1.00;;;;;;4821599;28;20195;-83
2021/04/23 06:35:33;;;;;;;4.93;2.57;;;9.10;1.00;;;;;;4817052;28;20266;-83
2021/04/23 06:37:57;;;;;;;10.77;3.83;;;9.50;93.50;;;;;;4802187;28;20279;-79
2021/04/23 06:40:20;;;;;;;9.63;3.90;;;9.00;1.00;;;;;;4818635;28;20325;-77
2021/04/23 06:42:43;;;;;;;4.77;2.43;;;8.80;99.90;;;;;;4820613;28;20286;-85
2021/04/23 06:45:08;;;;;;;9.33;3.50;;;9.90;99.90;;;;;;4802778;28;20185;-87
2021/04/23 06:47:33;;;;;;;5.33;2.57;;;9.80;1.00;;;;;;4818851;28;20767;-84
2021/04/23 06:49:55;;;;;;;5.40;2.30;;;10.30;99.90;;;;;;4821334;28;20242;-85
2021/04/23 06:52:18;;;;;;;6.67;2.93;;;;;;;;;;4821044;28;20550;-83
2021/04/23 06:54:41;;;;;;;4.03;2.43;;;9.70;1.00;;;;;;4821899;28;20568;-80
2021/04/23 06:57:04;;;;;;;10.67;3.60;;;10.30;99.90;;;;;;4817990;28;20211;-73
2021/04/23 06:59:26;;;;;;;6.57;2.97;;;9.60;99.90;;;;;;4820544;28;20191;-84
2021/04/23 07:01:48;;;;;;;5.33;2.67;;;;;;;;;;4816503;28;20630;-78
2021/04/23 07:04:10;;;;;;;5.47;2.63;;;;;;;;;;4819931;28;20623;-77
2021/04/23 07:06:32;;;;;;;6.10;2.43;;;9.40;99.90;;;;;;4787334;28;20242;-78
2021/04/23 07:08:55;;;;;;;7.03;3.10;;;9.90;1.00;;;;;;4818504;28;20245;-76
2021/04/23 07:11:19;;;;;;;14.73;3.90;;;9.80;99.90;;;;;;4817306;28;20253;-75
2021/04/23 07:13:41;;;;;;;2.87;1.87;;;;;;;;;;4819412;28;20203;-75
2021/04/23 07:16:03;;;;;;;8.90;2.93;;;11.30;30.00;;;;;;4819076;28;20230;-82
2021/04/23 07:18:26;;;;;;;7.67;2.70;;;11.40;1.00;;;;;;4801799;28;20192;-78
2021/04/23 07:20:49;;;;;;;7.13;2.93;;;11.10;28.80;;;;;;4802515;28;20368;-83
2021/04/23 07:23:11;;;;;;;9.77;3.40;;;11.40;15.80;;;;;;4834060;28;20199;-87
2021/04/23 07:25:33;;;;;;;11.10;3.43;;;;;;;;;;4803034;28;20703;-73
2021/04/23 07:27:58;;;;;;;6.23;2.43;;;11.00;1.00;;;;;;4818202;28;20653;-75
2021/04/23 07:30:25;;;;;;;6.20;2.77;;;11.00;1.00;;;;;;4817495;28;20211;-75
2021/04/23 07:32:47;;;;;;;6.30;2.60;;;;;;;;;;4831438;28;20285;-73
2021/04/23 07:35:10;;;;;;;8.63;3.10;;;11.10;1.00;;;;;;4821766;28;20198;-76
2021/04/23 07:37:33;;;;;;;4.77;2.10;;;;;;;;;;4833695;28;20269;-74
2021/04/23 07:39:55;;;;;;;9.60;3.10;;;;;;;;;;4800776;28;20605;-73
2021/04/23 07:42:17;;;;;;;12.60;3.80;;;;;;;;;;4816856;28;20233;-77
2021/04/23 07:44:40;;;;;;;3.30;1.70;;;11.80;99.90;;;;;;4814624;28;20192;-80
2021/04/23 07:47:02;;;;;;;12.13;3.90;;;11.80;1.00;;;;;;4801223;28;20258;-75
2021/04/23 07:49:25;;;;;;;6.23;2.57;;;;;;;;;;4834772;28;20190;-75
2021/04/23 07:51:47;;;;;;;6.50;2.47;;;11.30;99.90;;;;;;4782529;28;20268;-75
2021/04/23 07:54:10;;;;;;;6.30;2.40;;;11.40;1.00;;;;;;4820715;28;20194;-74
2021/04/23 07:56:32;;;;;;;5.03;2.20;;;;;;;;;;4824013;28;20204;-77
2021/04/23 07:58:54;;;;;;;6.57;2.40;;;;;;;;;;4813466;28;20187;-72
2021/04/23 08:01:17;;;;;;;10.30;3.20;;;11.70;99.90;;;;;;4843313;28;20237;-78
2021/04/23 08:03:39;;;;;;;8.40;2.60;;;;;;;;;;4800125;28;21059;-77
2021/04/23 08:06:02;;;;;;;7.50;2.43;;;;;;;;;;4817812;28;20266;-74
2021/04/23 08:08:24;;;;;;;5.50;1.73;;;;;;;;;;4833748;28;20199;-72
2021/04/23 08:10:46;;;;;;;7.07;2.40;;;;;;;;;;4836857;28;20230;-73
2021/04/23 08:13:08;;;;;;;8.70;2.80;;;;;;;;;;4833311;28;20241;-76
2021/04/23 08:15:30;;;;;;;7.03;2.23;;;12.90;1.00;;;;;;4815917;28;20203;-75
2021/04/23 08:17:55;;;;;;;6.93;2.30;;;12.60;99.90;;;;;;4816714;28;20258;-73
2021/04/23 08:20:18;;;;;;;5.43;2.10;;;12.00;1.00;;;;;;4817482;28;20206;-83
2021/04/23 08:22:41;;;;;;;3.37;1.70;;;;;;;;;;4819353;28;20195;-73
2021/04/23 08:25:04;;;;;;;11.23;3.27;;;12.70;1.00;;;;;;4817019;28;20191;-75
2021/04/23 08:27:26;;;;;;;4.90;1.93;;;;;;;;;;4849485;28;20232;-73
2021/04/23 08:29:49;;;;;;;14.23;3.57;;;;;;;;;;4818398;28;20191;-74
2021/04/23 08:32:11;;;;;;;9.23;2.60;;;;;;;;;;4818112;28;20191;-75
2021/04/23 08:34:34;;;;;;;6.50;2.07;;;13.00;99.90;;;;;;4813834;28;20230;-73
2021/04/23 08:36:56;;;;;;;14.57;3.53;;;;;;;;;;4801872;28;20192;-74
2021/04/23 08:39:19;;;;;;;8.97;2.53;;;;;;;;;;4842752;28;20272;-80
2021/04/23 08:41:41;;;;;;;3.43;1.30;;;;;;;;;;4818950;28;20237;-76
2021/04/23 08:44:05;;;;;;;10.93;2.60;;;13.90;1.00;;;;;;4833730;28;20210;-74
2021/04/23 08:46:28;;;;;;;6.33;1.67;;;14.20;99.90;;;;;;4799734;28;20239;-79
2021/04/23 08:48:50;;;;;;;7.77;2.03;;;;;;;;;;4817098;28;20187;-80
2021/04/23 08:51:14;;;;;;;11.10;2.60;;;14.60;99.90;;;;;;4818027;28;20222;-82
2021/04/23 08:53:37;;;;;;;7.13;1.83;;;;;;;;;;4847851;28;20175;-86
2021/04/23 08:55:59;;;;;;;14.80;3.00;;;;;;;;;;4817088;28;20253;-79
2021/04/23 08:58:22;;;;;;;6.00;1.40;;;;;;;;;;4815793;28;20200;-80
2021/04/23 09:00:44;;;;;;;48.03;7.90;;;;;;;;;;4815311;28;20502;-83
2021/04/23 09:03:09;;;;;;;13.40;2.53;;;16.10;99.90;;;;;;4816157;28;20219;-77
2021/04/23 09:05:31;;;;;;;9.47;1.87;;;;;;;;;;4816503;28;20192;-77
2021/04/23 09:08:03;;;;;;;15.63;3.03;;;15.50;99.90;;;;;;4813886;28;20213;-75
2021/04/23 09:10:26;;;;;;;5.43;1.37;;;15.10;1.00;;;;;;4817929;28;20693;-75
2021/04/23 09:13:05;;;;;;;7.97;1.77;;;14.00;99.90;;;;;;4817072;28;20212;-75
2021/04/23 09:15:27;;;;;;;6.60;1.67;;;;;;;;;;4818793;28;20202;-77
2021/04/23 09:18:05;;;;;;;11.17;2.57;;;12.00;99.90;;;;;;4816513;28;20187;-77
2021/04/23 09:20:27;;;;;;;6.20;1.83;;;11.20;99.90;;;;;;4818466;28;20199;-76
2021/04/23 09:22:50;;;;;;;4.67;1.67;;;;;;;;;;4817698;28;20274;-80
2021/04/23 09:25:14;;;;;;;9.53;2.20;;;11.40;99.90;;;;;;4816963;28;20325;-73
2021/04/23 09:27:37;;;;;;;4.37;1.37;;;13.00;1.00;;;;;;4820405;28;20217;-76
2021/04/23 09:30:02;;;;;;;10.73;2.20;;;15.30;1.00;;;;;;4835380;28;20214;-74
2021/04/23 09:32:26;;;;;;;15.27;2.57;;;18.20;99.90;;;;;;4822035;28;20648;-85
2021/04/23 09:34:51;;;;;;;15.40;2.60;;;21.30;99.90;;;;;;4819261;28;20192;-77
2021/04/23 09:37:13;;;;;;;41.67;21.37;;;;;;;;;;4789255;28;20198;-73
2021/04/23 09:39:36;;;;;;;28.93;5.50;;;;;;;;;;4820810;28;20214;-86
2021/04/23 09:42:03;;;;;;;23.40;7.40;;;28.40;99.90;;;;;;4821470;28;20258;-84
2021/04/23 09:44:28;;;;;;;206.27;189.43;;;30.40;99.90;;;;;;4821678;28;20210;-89
2021/04/23 09:46:57;;;;;;;186.00;168.67;;;32.30;99.90;;;;;;4821770;28;20244;-90
2021/04/23 09:49:20;;;;;;;239.70;222.03;;;;;;;;;;4821601;28;20190;-76
2021/04/23 09:51:42;;;;;;;140.87;130.60;;;;;;;;;;4818592;28;20826;-74
2021/04/23 09:54:12;;;;;;;27.83;5.15;;;32.10;99.90;;;;;;4819773;28;20195;-79
2021/04/23 09:56:36;;;;;;;16.57;2.37;;;;;;;;;;4804018;28;20203;-77
2021/04/23 09:59:18;;;;;;;14.07;2.00;;;27.60;99.90;;;;;;4821326;28;20247;-78
2021/04/23 10:01:51;;;;;;;8.07;1.33;;;27.80;99.90;;;;;;4832670;28;20281;-76
2021/04/23 10:04:20;;;;;;;27.03;4.60;;;29.70;99.90;;;;;;4818201;28;20197;-74
2021/04/23 10:06:43;;;;;;;26.60;9.13;;;;;;;;;;4819957;28;20203;-78
2021/04/23 10:09:07;;;;;;;38.90;18.77;;;31.80;99.90;;;;;;4820762;28;20253;-76
2021/04/23 10:11:41;;;;;;;45.78;30.80;;;33.30;99.90;;;;;;4820344;28;20187;-78
2021/04/23 10:14:09;;;;;;;218.77;204.15;;;35.00;99.90;;;;;;4819588;28;20218;-76
2021/04/23 10:16:37;;;;;;;347.88;319.20;;;35.90;99.90;;;;;;4818982;28;20635;-78
2021/04/23 10:19:00;;;;;;;418.05;349.10;;;;;;;;;;4820960;28;20261;-74
2021/04/23 10:21:22;;;;;;;415.15;373.33;;;;;;;;;;4820774;28;20207;-72
2021/04/23 10:23:45;;;;;;;377.08;346.02;;;;;;;;;;4819615;28;20187;-77
2021/04/23 10:26:07;;;;;;;200.63;186.98;;;;;;;;;;4819711;28;20199;-74
2021/04/23 10:28:29;;;;;;;87.85;82.57;;;;;;;;;;4819599;28;20188;-77
2021/04/23 10:30:54;;;;;;;29.65;26.75;;;29.40;99.90;;;;;;4819551;28;20196;-76
2021/04/23 10:33:20;;;;;;;45.93;10.97;;;26.90;99.90;;;;;;4819662;28;20246;-74
2021/04/23 10:35:44;;;;;;;9.87;3.00;;;24.00;99.90;;;;;;4815777;28;20187;-77
2021/04/23 10:38:08;;;;;;;74.77;67.80;;;21.80;99.90;;;;;;4819106;28;20244;-73
2021/04/23 10:40:30;;;;;;;13.53;3.90;;;;;;;;;;4818436;28;20282;-81
2021/04/23 10:42:55;;;;;;;13.07;1.80;;;18.20;99.90;;;;;;4819738;28;20201;-75
2021/04/23 10:45:25;;;;;;;22.37;2.87;;;16.90;99.90;;;;;;4833297;28;20214;-75
2021/04/23 10:47:49;;;;;;;17.60;2.23;;;15.90;99.90;;;;;;4802155;28;20576;-78
2021/04/23 10:50:14;;;;;;;27.60;3.50;;;15.00;99.90;;;;;;4820121;28;20183;-72
2021/04/23 10:52:36;;;;;;;13.07;1.90;;;;;;;;;;4820880;28;20266;-75
2021/04/23 10:55:04;;;;;;;16.70;2.50;;;13.40;99.90;;;;;;4833899;28;20199;-74
2021/04/23 10:57:52;;;;;;;10.30;1.83;;;12.90;99.90;;;;;;4819606;28;20606;-74
2021/04/23 11:00:34;;;;;;;18.40;2.80;;;12.90;90.80;;;;;;4818776;28;20208;-71
2021/04/23 11:03:27;;;;;;;12.33;2.10;;;12.30;99.90;;;;;;4818878;28;20238;-74
2021/04/23 11:05:52;;;;;;;16.50;2.80;;;12.70;1.00;;;;;;4800411;28;20225;-74
2021/04/23 11:08:15;;;;;;;16.93;2.97;;;;;;;;;;4799553;28;20256;-73
2021/04/23 11:11:12;;;;;;;8.23;1.80;;;12.50;99.90;;;;;;4819541;28;20195;-74
2021/04/23 11:13:35;;;;;;;12.07;2.20;;;13.00;99.90;;;;;;4818661;28;20211;-82
2021/04/23 11:16:32;;;;;;;11.73;2.40;;;13.50;1.00;;;;;;4819690;28;20219;-73
2021/04/23 11:18:56;;;;;;;8.87;2.10;;;15.00;99.90;;;;;;4819170;28;20188;-72
2021/04/23 11:21:40;;;;;;;13.07;2.30;;;17.00;99.90;;;;;;4819681;28;20373;-74
2021/04/23 11:24:13;;;;;;;12.20;1.87;;;21.80;16.00;;;;;;4812771;28;20203;-77
2021/04/23 11:27:05;;;;;;;10.47;1.53;;;25.60;99.90;;;;;;4834659;28;20562;-74
2021/04/23 11:29:28;;;;;;;15.63;2.27;;;29.40;99.90;;;;;;4817896;28;20238;-74
2021/04/23 11:32:11;;;;;;;26.27;3.73;;;32.00;99.90;;;;;;4818575;28;20613;-81
2021/04/23 11:34:36;;;;;;;12.33;2.03;;;34.60;99.90;;;;;;4833308;28;20209;-75
2021/04/23 11:37:04;;;;;;;48.40;6.38;;;35.70;99.90;;;;;;4817576;28;20211;-82
2021/04/23 11:39:30;;;;;;;10.88;1.55;;;34.60;99.90;;;;;;4801467;28;20216;-73
2021/04/23 11:42:17;;;;;;;17.50;2.53;;;32.60;5.50;;;;;;4818167;28;20313;-73
2021/04/23 11:44:51;;;;;;;4.88;0.80;;;27.90;99.90;;;;;;4818327;28;20246;-76
2021/04/23 11:47:14;;;;;;;22.50;2.93;;;25.50;99.90;;;;;;4817377;28;20202;-78
2021/04/23 11:49:36;;;;;;;4.23;0.77;;;;;;;;;;4835133;28;20245;-73
2021/04/23 11:52:01;;;;;;;12.53;1.80;;;;;;;;;;4837199;28;20202;-72
2021/04/23 11:54:36;;;;;;;9.47;1.53;;;18.90;1.00;;;;;;4808479;28;20205;-73
2021/04/23 11:57:00;;;;;;;31.17;4.20;;;17.20;99.90;;;;;;4798512;28;20201;-73
2021/04/23 11:59:23;;;;;;;8.60;1.40;;;;;;;;;;4801199;28;20728;-74
2021/04/23 12:01:45;;;;;;;8.40;1.37;;;;;;;;;;4797710;28;20236;-72
2021/04/23 12:04:07;;;;;;;16.07;2.47;;;;;;;;;;4818429;28;20243;-76
2021/04/23 12:06:30;;;;;;;11.50;1.97;;;;;;;;;;4819022;28;20183;-75
2021/04/23 12:08:52;;;;;;;12.73;2.17;;;;;;;;;;4818070;28;20203;-81
2021/04/23 12:11:15;;;;;;;11.97;2.10;;;12.90;1.00;;;;;;4817358;28;20329;-72
2021/04/23 12:13:39;;;;;;;7.83;1.57;;;15.00;99.90;;;;;;4818438;28;20219;-72
2021/04/23 12:16:03;;;;;;;9.10;1.67;;;17.90;99.90;;;;;;4819921;28;20613;-77
2021/04/23 12:18:26;;;;;;;6.93;1.30;;;;;;;;;;4818972;28;20591;-72
2021/04/23 12:20:50;;;;;;;8.80;1.53;;;25.80;99.90;;;;;;4817751;28;20246;-81
2021/04/23 12:23:14;;;;;;;15.70;2.37;;;29.30;99.90;;;;;;4818493;28;20558;-84
2021/04/23 12:25:41;;;;;;;18.47;2.77;;;31.50;99.90;;;;;;4818571;28;20261;-83
2021/04/23 12:28:26;;;;;;;11.87;1.93;;;31.30;99.90;;;;;;4818860;28;20663;-76
2021/04/23 12:30:50;;;;;;;6.33;1.10;;;30.50;99.90;;;;;;4833832;28;20202;-75
2021/04/23 12:33:13;;;;;;;8.68;1.58;;;;;;;;;;4830258;28;20190;-75
2021/04/23 12:35:37;;;;;;;3.83;0.73;;;27.70;99.90;;;;;;4808714;28;20198;-84
2021/04/23 12:38:00;;;;;;;7.10;1.23;;;;;;;;;;4811702;28;20199;-82
2021/04/23 12:40:30;;;;;;;6.80;1.20;;;28.20;99.90;;;;;;4800243;28;20563;-79
2021/04/23 12:42:53;;;;;;;11.90;1.93;;;;;;;;;;4810467;28;20214;-79
2021/04/23 12:45:16;;;;;;;11.75;1.95;;;31.10;99.90;;;;;;4818437;28;20183;-83
2021/04/23 12:47:38;;;;;;;7.78;1.35;;;32.00;1.00;;;;;;4849125;28;20189;-74
2021/04/23 12:50:00;;;;;;;7.55;1.25;;;;;;;;;;4818527;28;20191;-78
2021/04/23 12:52:23;;;;;;;4.60;0.88;;;33.70;99.90;;;;;;4849739;28;20619;-75
2021/04/23 12:54:48;;;;;;;5.70;0.98;;;35.30;99.90;;;;;;4816957;28;20206;-81
2021/04/23 12:57:12;;;;;;;14.05;2.25;;;34.70;99.90;;;;;;4817658;28;20187;-78
2021/04/23 12:59:45;;;;;;;7.30;1.30;;;32.80;99.90;;;;;;4818936;28;20242;-75
2021/04/23 13:02:26;;;;;;;19.60;3.17;;;30.50;99.90;;;;;;4817368;28;20261;-74
2021/04/23 13:04:48;;;;;;;12.05;2.13;;;27.80;99.90;;;;;;4821814;28;20182;-77